createdAt,value
2019-02-27T00:02:28.017Z,4.10
2019-02-27T00:04:59.369Z,4.10
2019-02-27T00:07:32.006Z,4.10
2019-02-27T00:10:06.061Z,4.10
2019-02-27T00:12:37.362Z,4.00
2019-02-27T00:15:09.680Z,4.00
2019-02-27T00:17:40.764Z,4.00
2019-02-27T00:20:12.614Z,4.00
2019-02-27T00:22:47.898Z,3.90
2019-02-27T00:25:17.028Z,3.90
2019-02-27T00:27:49.270Z,3.90
2019-02-27T00:30:17.337Z,3.90
2019-02-27T00:32:50.998Z,3.90
2019-02-27T00:35:24.236Z,3.90
2019-02-27T00:37:55.904Z,3.80
2019-02-27T00:40:25.810Z,3.70
2019-02-27T00:42:57.873Z,3.70
2019-02-27T00:45:28.532Z,3.70
2019-02-27T00:48:02.024Z,3.70
2019-02-27T00:50:32.413Z,3.70
2019-02-27T00:53:06.821Z,3.70
2019-02-27T00:55:40.157Z,3.70
2019-02-27T00:58:10.621Z,3.70
2019-02-27T01:00:41.036Z,3.60
2019-02-27T01:03:12.839Z,3.60
2019-02-27T01:05:42.918Z,3.60
2019-02-27T01:08:12.761Z,3.70
2019-02-27T01:10:45.284Z,3.70
2019-02-27T01:13:16.172Z,3.70
2019-02-27T01:15:47.346Z,3.80
2019-02-27T01:18:20.858Z,3.70
2019-02-27T01:20:53.448Z,3.80
2019-02-27T01:23:23.133Z,3.80
2019-02-27T01:25:56.028Z,3.80
2019-02-27T01:28:28.626Z,3.80
2019-02-27T01:31:02.190Z,3.80
2019-02-27T01:33:37.725Z,3.70
2019-02-27T01:36:05.713Z,3.70
2019-02-27T01:38:38.557Z,3.70
2019-02-27T01:41:09.595Z,3.70
2019-02-27T01:43:42.476Z,3.70
2019-02-27T01:46:15.925Z,3.60
2019-02-27T01:48:48.298Z,3.60
2019-02-27T01:51:20.713Z,3.70
2019-02-27T01:53:52.269Z,3.70
2019-02-27T01:56:23.735Z,3.60
2019-02-27T01:58:55.545Z,3.60
2019-02-27T02:01:29.792Z,3.60
2019-02-27T02:04:00.476Z,3.60
2019-02-27T02:06:33.623Z,3.60
2019-02-27T02:09:12.818Z,3.70
2019-02-27T02:11:43.726Z,3.60
2019-02-27T02:14:24.984Z,3.60
2019-02-27T02:17:17.168Z,3.60
2019-02-27T02:20:17.175Z,3.60
2019-02-27T02:23:06.739Z,3.70
2019-02-27T02:25:48.677Z,3.60
2019-02-27T02:28:40.077Z,3.60
2019-02-27T02:31:20.692Z,3.60
2019-02-27T02:34:26.701Z,3.60
2019-02-27T02:37:03.382Z,3.60
2019-02-27T02:40:12.699Z,3.60
2019-02-27T02:43:05.673Z,3.60
2019-02-27T02:45:43.450Z,3.60
2019-02-27T02:48:42.541Z,3.50
2019-02-27T02:51:45.675Z,3.50
2019-02-27T02:54:36.400Z,3.50
2019-02-27T02:57:21.309Z,3.60
2019-02-27T03:00:00.916Z,3.50
2019-02-27T03:02:50.697Z,3.60
2019-02-27T03:05:42.957Z,3.60
2019-02-27T03:08:32.431Z,3.50
2019-02-27T03:11:18.000Z,3.60
2019-02-27T03:14:00.108Z,3.60
2019-02-27T03:16:49.658Z,3.60
2019-02-27T03:19:27.927Z,3.50
2019-02-27T03:22:04.737Z,3.50
2019-02-27T03:24:47.293Z,3.50
2019-02-27T03:27:36.725Z,3.40
2019-02-27T03:30:37.007Z,3.40
2019-02-27T03:33:49.040Z,3.40
2019-02-27T03:36:39.861Z,3.40
2019-02-27T03:39:34.972Z,3.30
2019-02-27T03:42:26.503Z,3.30
2019-02-27T03:45:09.229Z,3.20
2019-02-27T03:47:59.542Z,3.30
2019-02-27T03:50:52.625Z,3.30
2019-02-27T03:53:35.533Z,3.30
2019-02-27T03:56:26.329Z,3.30
2019-02-27T03:59:08.707Z,3.20
2019-02-27T04:01:58.678Z,3.10
2019-02-27T04:04:36.657Z,3.10
2019-02-27T04:07:24.435Z,3.00
2019-02-27T04:09:56.997Z,3.00
2019-02-27T04:12:29.833Z,3.00
2019-02-27T04:15:01.555Z,3.00
2019-02-27T04:17:31.529Z,3.00
2019-02-27T04:20:03.154Z,3.00
2019-02-27T04:22:37.606Z,2.90
2019-02-27T04:25:11.058Z,2.80
2019-02-27T04:27:42.558Z,2.70
2019-02-27T04:30:14.966Z,2.70
2019-02-27T04:32:48.665Z,2.70
2019-02-27T04:35:21.224Z,2.80
2019-02-27T04:37:54.297Z,2.80
2019-02-27T04:40:26.508Z,2.80
2019-02-27T04:42:59.377Z,2.70
2019-02-27T04:45:30.657Z,2.70
2019-02-27T04:48:02.197Z,2.70
2019-02-27T04:50:37.009Z,2.70
2019-02-27T04:53:09.601Z,2.70
2019-02-27T04:55:40.662Z,2.70
2019-02-27T04:58:11.497Z,2.70
2019-02-27T05:00:42.674Z,2.60
2019-02-27T05:03:14.597Z,2.60
2019-02-27T05:05:45.516Z,2.60
2019-02-27T05:08:19.884Z,2.50
2019-02-27T05:10:49.724Z,2.60
2019-02-27T05:13:21.396Z,2.60
2019-02-27T05:15:54.365Z,2.60
2019-02-27T05:18:29.495Z,2.60
2019-02-27T05:21:00.808Z,2.50
2019-02-27T05:23:33.577Z,2.50
2019-02-27T05:26:03.240Z,2.50
2019-02-27T05:28:35.622Z,2.50
2019-02-27T05:31:07.368Z,2.50
2019-02-27T05:33:39.850Z,2.60
2019-02-27T05:36:11.334Z,2.50
2019-02-27T05:38:44.233Z,2.50
2019-02-27T05:41:16.265Z,2.50
2019-02-27T05:43:48.716Z,2.50
2019-02-27T05:46:19.601Z,2.50
2019-02-27T05:48:50.916Z,2.50
2019-02-27T05:51:20.916Z,2.50
2019-02-27T05:53:50.207Z,2.50
2019-02-27T05:56:19.353Z,2.50
2019-02-27T05:58:49.901Z,2.50
2019-02-27T06:01:19.074Z,2.60
2019-02-27T06:03:52.316Z,2.50
2019-02-27T06:06:24.106Z,2.50
2019-02-27T06:08:57.029Z,2.50
2019-02-27T06:11:31.032Z,2.60
2019-02-27T06:14:03.115Z,2.60
2019-02-27T06:16:37.557Z,2.60
2019-02-27T06:19:06.797Z,2.60
2019-02-27T06:21:43.181Z,2.60
2019-02-27T06:24:13.583Z,2.60
2019-02-27T06:26:45.083Z,2.70
2019-02-27T06:29:16.055Z,2.70
2019-02-27T06:31:46.254Z,2.80
2019-02-27T06:34:15.914Z,2.80
2019-02-27T06:36:45.331Z,2.80
2019-02-27T06:39:15.386Z,2.70
2019-02-27T06:41:47.443Z,2.70
2019-02-27T06:44:22.089Z,2.80
2019-02-27T06:46:54.731Z,2.80
2019-02-27T06:49:27.282Z,2.80
2019-02-27T06:51:59.187Z,2.80
2019-02-27T06:54:32.012Z,2.80
2019-02-27T06:57:07.534Z,2.90
2019-02-27T06:59:37.073Z,2.90
2019-02-27T07:02:07.604Z,2.90
2019-02-27T07:04:39.490Z,2.80
2019-02-27T07:07:08.558Z,2.90
2019-02-27T07:09:39.214Z,2.90
2019-02-27T07:12:09.236Z,2.90
2019-02-27T07:14:40.628Z,3.00
2019-02-27T07:17:11.605Z,3.00
2019-02-27T07:19:43.129Z,3.00
2019-02-27T07:22:14.566Z,3.00
2019-02-27T07:24:53.154Z,3.10
2019-02-27T07:27:23.932Z,3.10
2019-02-27T07:29:54.917Z,3.10
2019-02-27T07:32:31.388Z,3.10
2019-02-27T07:35:02.156Z,3.10
2019-02-27T07:37:33.613Z,3.20
2019-02-27T07:40:08.620Z,3.10
2019-02-27T07:42:38.207Z,3.10
2019-02-27T07:45:12.116Z,3.20
2019-02-27T07:47:45.574Z,3.20
2019-02-27T07:50:17.112Z,3.20
2019-02-27T07:52:48.732Z,3.30
2019-02-27T07:55:22.905Z,3.40
2019-02-27T07:57:58.463Z,3.40
2019-02-27T08:00:27.432Z,3.40
2019-02-27T08:03:00.842Z,3.50
2019-02-27T08:05:31.617Z,3.50
2019-02-27T08:08:01.200Z,3.60
2019-02-27T08:10:36.980Z,3.60
2019-02-27T08:13:10.325Z,3.70
2019-02-27T08:15:39.455Z,3.70
2019-02-27T08:18:10.630Z,3.80
2019-02-27T08:20:43.221Z,3.90
2019-02-27T08:23:12.551Z,3.90
2019-02-27T08:25:43.333Z,4.10
2019-02-27T08:28:16.889Z,4.20
2019-02-27T08:30:58.253Z,4.40
2019-02-27T08:33:29.241Z,4.50
2019-02-27T08:36:01.134Z,4.50
2019-02-27T08:38:32.592Z,4.60
2019-02-27T08:41:05.372Z,4.60
2019-02-27T08:43:38.092Z,4.70
2019-02-27T08:46:07.398Z,4.70
2019-02-27T08:48:37.628Z,4.80
2019-02-27T08:51:09.737Z,4.80
2019-02-27T08:53:41.188Z,4.90
2019-02-27T08:56:13.860Z,4.90
2019-02-27T08:58:47.341Z,4.90
2019-02-27T09:01:21.646Z,5.00
2019-02-27T09:03:51.670Z,5.00
2019-02-27T09:06:27.315Z,5.10
2019-02-27T09:08:55.499Z,5.10
2019-02-27T09:11:27.477Z,5.20
2019-02-27T09:14:02.732Z,5.30
2019-02-27T09:16:32.777Z,5.40
2019-02-27T09:19:01.944Z,5.50
2019-02-27T09:21:32.378Z,5.60
2019-02-27T09:24:05.139Z,5.70
2019-02-27T09:26:37.004Z,5.80
2019-02-27T09:29:07.376Z,5.90
2019-02-27T09:31:47.824Z,6.10
2019-02-27T09:34:12.315Z,6.10
2019-02-27T09:36:44.482Z,6.10
2019-02-27T09:39:17.929Z,6.20
2019-02-27T09:41:51.185Z,6.30
2019-02-27T09:44:22.480Z,6.40
2019-02-27T09:46:55.980Z,6.50
2019-02-27T09:49:27.462Z,6.60
2019-02-27T09:51:59.989Z,6.70
2019-02-27T09:54:31.088Z,6.80
2019-02-27T09:57:02.905Z,6.90
2019-02-27T09:59:34.810Z,7.00
2019-02-27T10:02:25.570Z,7.00
2019-02-27T10:05:01.432Z,7.10
2019-02-27T10:07:31.017Z,7.10
2019-02-27T10:10:02.655Z,7.20
2019-02-27T10:12:33.805Z,7.30
2019-02-27T10:15:04.919Z,7.30
2019-02-27T10:17:36.876Z,7.30
2019-02-27T10:20:08.504Z,7.40
2019-02-27T10:22:39.797Z,7.60
2019-02-27T10:25:10.914Z,7.60
2019-02-27T10:27:40.923Z,7.70
2019-02-27T10:30:12.781Z,7.80
2019-02-27T10:32:43.396Z,7.70
2019-02-27T10:35:16.180Z,7.80
2019-02-27T10:37:50.789Z,7.80
2019-02-27T10:40:23.049Z,7.90
2019-02-27T10:42:55.884Z,8.00
2019-02-27T10:45:27.764Z,8.00
2019-02-27T10:48:01.325Z,8.20
2019-02-27T10:50:35.482Z,8.30
2019-02-27T10:53:07.777Z,8.30
2019-02-27T10:55:38.978Z,8.30
2019-02-27T10:58:13.236Z,8.30
2019-02-27T11:00:48.000Z,8.40
2019-02-27T11:03:19.864Z,8.50
2019-02-27T11:05:53.122Z,8.50
2019-02-27T11:08:23.788Z,8.50
2019-02-27T11:10:55.854Z,8.50
2019-02-27T11:13:28.629Z,8.50
2019-02-27T11:16:01.634Z,8.50
2019-02-27T11:18:33.242Z,8.50
2019-02-27T11:21:04.766Z,8.50
2019-02-27T11:23:35.436Z,8.40
2019-02-27T11:26:06.901Z,8.50
2019-02-27T11:28:38.895Z,8.40
2019-02-27T11:31:11.042Z,8.40
2019-02-27T11:33:45.359Z,8.50
2019-02-27T11:36:16.919Z,8.40
2019-02-27T11:38:48.534Z,8.50
2019-02-27T11:41:20.554Z,8.50
2019-02-27T11:43:50.573Z,8.60
2019-02-27T11:46:23.050Z,8.50
2019-02-27T11:48:57.071Z,8.60
2019-02-27T11:51:27.991Z,8.50
2019-02-27T11:53:58.768Z,8.60
2019-02-27T11:56:30.437Z,8.60
2019-02-27T11:59:02.960Z,8.60
2019-02-27T12:01:35.561Z,8.60
2019-02-27T12:04:07.517Z,8.70
2019-02-27T12:06:41.660Z,8.70
2019-02-27T12:09:13.814Z,8.80
2019-02-27T12:11:48.374Z,8.80
2019-02-27T12:14:15.373Z,8.80
2019-02-27T12:16:48.571Z,8.80
2019-02-27T12:19:18.764Z,8.80
2019-02-27T12:21:49.561Z,8.80
2019-02-27T12:24:20.854Z,8.80
2019-02-27T12:26:51.799Z,8.80
2019-02-27T12:29:21.259Z,8.80
2019-02-27T12:31:52.083Z,8.80
2019-02-27T12:34:25.233Z,8.90
2019-02-27T12:36:56.762Z,8.90
2019-02-27T12:39:30.786Z,8.80
2019-02-27T12:42:04.183Z,8.80
2019-02-27T12:44:38.002Z,8.90
2019-02-27T12:47:12.375Z,8.80
2019-02-27T12:49:43.865Z,8.90
2019-02-27T12:52:14.903Z,8.90
2019-02-27T12:54:45.960Z,8.90
2019-02-27T12:57:18.281Z,9.00
2019-02-27T12:59:49.786Z,9.00
2019-02-27T13:02:25.880Z,9.00
2019-02-27T13:04:53.409Z,8.90
2019-02-27T13:07:24.009Z,9.00
2019-02-27T13:09:52.852Z,9.00
2019-02-27T13:12:23.614Z,9.00
2019-02-27T13:14:54.441Z,9.10
2019-02-27T13:17:25.494Z,9.10
2019-02-27T13:19:57.041Z,9.10
2019-02-27T13:22:30.149Z,9.20
2019-02-27T13:25:01.813Z,9.10
2019-02-27T13:27:31.262Z,9.20
2019-02-27T13:30:08.785Z,9.20
2019-02-27T13:32:32.750Z,9.10
2019-02-27T13:35:03.563Z,9.20
2019-02-27T13:37:36.617Z,9.10
2019-02-27T13:40:09.406Z,9.10
2019-02-27T13:42:40.688Z,9.10
2019-02-27T13:45:13.533Z,9.10
2019-02-27T13:47:45.034Z,9.10
2019-02-27T13:50:22.363Z,9.10
2019-02-27T13:52:57.561Z,9.10
2019-02-27T13:55:27.920Z,9.00
2019-02-27T13:58:03.407Z,9.00
2019-02-27T14:00:31.978Z,9.00
2019-02-27T14:03:02.854Z,8.90
2019-02-27T14:05:36.160Z,8.90
2019-02-27T14:08:06.229Z,9.00
2019-02-27T14:10:36.150Z,8.90
2019-02-27T14:13:09.691Z,8.90
2019-02-27T14:15:39.528Z,9.00
2019-02-27T14:18:16.139Z,8.90
2019-02-27T14:20:47.760Z,9.00
2019-02-27T14:23:19.309Z,8.90
2019-02-27T14:25:54.587Z,8.90
2019-02-27T14:28:25.545Z,9.00
2019-02-27T14:30:58.640Z,9.00
2019-02-27T14:33:28.943Z,9.00
2019-02-27T14:36:00.744Z,8.90
2019-02-27T14:38:31.338Z,8.90
2019-02-27T14:41:21.530Z,8.80
2019-02-27T14:43:53.037Z,8.80
2019-02-27T14:46:23.946Z,8.70
2019-02-27T14:48:55.685Z,8.70
2019-02-27T14:51:24.490Z,8.70
2019-02-27T14:53:55.759Z,8.60
2019-02-27T14:56:27.009Z,8.60
2019-02-27T14:58:57.673Z,8.60
2019-02-27T15:01:29.034Z,8.60
2019-02-27T15:04:01.508Z,8.60
2019-02-27T15:06:32.641Z,8.60
2019-02-27T15:09:06.539Z,8.50
2019-02-27T15:11:38.180Z,8.50
2019-02-27T15:14:11.018Z,8.50
2019-02-27T15:16:43.982Z,8.40
2019-02-27T15:19:14.448Z,8.40
2019-02-27T15:21:46.621Z,8.30
2019-02-27T15:24:17.113Z,8.30
2019-02-27T15:26:50.689Z,8.30
2019-02-27T15:29:20.341Z,8.20
2019-02-27T15:31:54.757Z,8.10
2019-02-27T15:34:27.358Z,8.00
2019-02-27T15:37:00.999Z,7.90
2019-02-27T15:39:31.245Z,7.90
2019-02-27T15:42:01.150Z,7.90
2019-02-27T15:44:34.531Z,7.90
2019-02-27T15:47:04.777Z,7.90
2019-02-27T15:49:40.151Z,7.90
2019-02-27T15:52:10.621Z,7.80
2019-02-27T15:54:41.484Z,7.80
2019-02-27T15:57:14.910Z,7.70
2019-02-27T15:59:45.989Z,7.60
2019-02-27T16:02:15.228Z,7.60
2019-02-27T16:04:44.554Z,7.50
2019-02-27T16:07:14.576Z,7.40
2019-02-27T16:09:43.541Z,7.40
2019-02-27T16:12:12.258Z,7.30
2019-02-27T16:14:43.697Z,7.30
2019-02-27T16:17:16.778Z,7.20
2019-02-27T16:19:46.521Z,7.20
2019-02-27T16:22:18.006Z,7.20
2019-02-27T16:24:49.110Z,7.20
2019-02-27T16:27:21.873Z,7.30
2019-02-27T16:29:56.703Z,7.20
2019-02-27T16:32:31.820Z,7.30
2019-02-27T16:35:04.376Z,7.20
2019-02-27T16:37:37.979Z,7.20
2019-02-27T16:40:10.355Z,7.20
2019-02-27T16:42:43.163Z,7.10
2019-02-27T16:45:15.770Z,7.00
2019-02-27T16:47:46.908Z,7.00
2019-02-27T16:50:17.409Z,7.00
2019-02-27T16:52:46.891Z,7.00
2019-02-27T16:55:21.086Z,7.00
2019-02-27T16:57:51.221Z,7.00
2019-02-27T17:00:21.809Z,6.90
2019-02-27T17:02:51.512Z,7.00
2019-02-27T17:05:21.082Z,6.90
2019-02-27T17:07:51.138Z,6.90
2019-02-27T17:10:21.655Z,7.00
2019-02-27T17:12:51.250Z,6.90
2019-02-27T17:15:21.363Z,6.90
2019-02-27T17:17:53.938Z,6.80
2019-02-27T17:20:24.102Z,6.70
2019-02-27T17:22:53.871Z,6.70
2019-02-27T17:25:29.037Z,6.70
2019-02-27T17:27:55.765Z,6.80
2019-02-27T17:30:28.320Z,6.80
2019-02-27T17:33:01.441Z,6.80
2019-02-27T17:35:34.411Z,6.70
2019-02-27T17:38:05.286Z,6.70
2019-02-27T17:40:37.895Z,6.70
2019-02-27T17:43:08.899Z,6.70
2019-02-27T17:45:39.353Z,6.70
2019-02-27T17:48:09.331Z,6.60
2019-02-27T17:50:38.599Z,6.50
2019-02-27T17:53:08.523Z,6.50
2019-02-27T17:55:41.586Z,6.50
2019-02-27T17:58:12.297Z,6.40
2019-02-27T18:00:50.082Z,6.40
2019-02-27T18:03:17.180Z,6.40
2019-02-27T18:05:48.666Z,6.40
2019-02-27T18:08:21.464Z,6.40
2019-02-27T18:10:55.542Z,6.40
2019-02-27T18:13:25.437Z,6.30
2019-02-27T18:15:57.406Z,6.30
2019-02-27T18:18:28.426Z,6.30
2019-02-27T18:20:59.512Z,6.20
2019-02-27T18:23:31.941Z,6.20
2019-02-27T18:26:02.958Z,6.20
2019-02-27T18:28:33.705Z,6.10
2019-02-27T18:31:06.613Z,6.10
2019-02-27T18:33:41.214Z,6.10
2019-02-27T18:36:11.473Z,6.20
2019-02-27T18:38:43.380Z,6.20
2019-02-27T18:41:15.319Z,6.20
2019-02-27T18:43:47.251Z,6.20
2019-02-27T18:46:24.495Z,6.10
2019-02-27T18:48:54.545Z,6.20
2019-02-27T18:51:25.496Z,6.30
2019-02-27T18:53:55.056Z,6.30
2019-02-27T18:56:23.982Z,6.30
2019-02-27T18:58:56.427Z,6.20
2019-02-27T19:01:27.906Z,6.20
2019-02-27T19:04:01.217Z,6.10
2019-02-27T19:06:35.359Z,6.10
2019-02-27T19:09:07.498Z,6.10
2019-02-27T19:11:50.821Z,6.10
2019-02-27T19:14:22.420Z,6.00
2019-02-27T19:16:55.048Z,5.90
2019-02-27T19:19:26.014Z,6.00
2019-02-27T19:22:00.958Z,6.00
2019-02-27T19:24:32.526Z,5.90
2019-02-27T19:27:03.602Z,5.80
2019-02-27T19:29:36.189Z,5.80
2019-02-27T19:32:08.259Z,5.70
2019-02-27T19:34:41.440Z,5.70
2019-02-27T19:37:13.657Z,5.60
2019-02-27T19:39:45.214Z,5.60
2019-02-27T19:42:16.192Z,5.60
2019-02-27T19:44:48.949Z,5.60
2019-02-27T19:47:18.645Z,5.50
2019-02-27T19:49:47.899Z,5.50
2019-02-27T19:52:20.012Z,5.50
2019-02-27T19:54:53.791Z,5.50
2019-02-27T19:57:24.810Z,5.50
2019-02-27T19:59:59.078Z,5.40
2019-02-27T20:02:33.646Z,5.40
2019-02-27T20:05:05.886Z,5.40
2019-02-27T20:07:37.355Z,5.40
2019-02-27T20:10:07.889Z,5.50
2019-02-27T20:12:37.850Z,5.60
2019-02-27T20:15:11.043Z,5.60
2019-02-27T20:17:41.327Z,5.50
2019-02-27T20:20:13.701Z,5.50
2019-02-27T20:22:47.311Z,5.50
2019-02-27T20:25:21.992Z,5.50
2019-02-27T20:27:58.709Z,5.50
2019-02-27T20:30:32.013Z,5.50
2019-02-27T20:33:04.089Z,5.40
2019-02-27T20:35:34.608Z,5.40
2019-02-27T20:38:04.911Z,5.40
2019-02-27T20:40:35.201Z,5.30
2019-02-27T20:43:06.871Z,5.40
2019-02-27T20:45:42.633Z,5.50
2019-02-27T20:48:14.250Z,5.40
2019-02-27T20:50:46.438Z,5.40
2019-02-27T20:53:21.011Z,5.30
2019-02-27T20:55:53.770Z,5.40
2019-02-27T20:58:29.019Z,5.30
2019-02-27T21:01:01.081Z,5.30
2019-02-27T21:03:34.986Z,5.30
2019-02-27T21:06:05.555Z,5.20
2019-02-27T21:08:36.832Z,5.30
2019-02-27T21:11:06.759Z,5.40
2019-02-27T21:13:36.569Z,5.30
2019-02-27T21:16:09.348Z,5.20
2019-02-27T21:18:38.288Z,5.20
2019-02-27T21:21:08.619Z,5.20
2019-02-27T21:23:40.156Z,5.20
2019-02-27T21:26:11.197Z,5.20
2019-02-27T21:28:40.794Z,5.20
2019-02-27T21:31:09.849Z,5.20
2019-02-27T21:33:42.347Z,5.20
2019-02-27T21:36:10.108Z,5.20
2019-02-27T21:38:41.058Z,5.20
2019-02-27T21:41:11.809Z,5.20
2019-02-27T21:43:41.926Z,5.10
2019-02-27T21:46:14.038Z,5.30
2019-02-27T21:48:43.117Z,5.30
2019-02-27T21:51:13.834Z,5.30
2019-02-27T21:53:45.436Z,5.30
2019-02-27T21:56:18.075Z,5.30
2019-02-27T21:58:49.657Z,5.30
2019-02-27T22:01:22.633Z,5.30
2019-02-27T22:03:52.745Z,5.30
2019-02-27T22:06:27.433Z,5.20
2019-02-27T22:08:57.814Z,5.20
2019-02-27T22:11:30.699Z,5.30
2019-02-27T22:14:04.542Z,5.20
2019-02-27T22:16:36.594Z,5.20
2019-02-27T22:19:11.601Z,5.30
2019-02-27T22:21:46.683Z,5.20
2019-02-27T22:24:20.731Z,5.10
2019-02-27T22:26:47.761Z,5.10
2019-02-27T22:29:19.659Z,5.10
2019-02-27T22:31:52.278Z,5.10
2019-02-27T22:34:23.168Z,5.10
2019-02-27T22:36:55.326Z,5.00
2019-02-27T22:39:31.646Z,5.10
2019-02-27T22:42:02.845Z,5.00
2019-02-27T22:44:32.922Z,5.10
2019-02-27T22:47:02.630Z,5.10
2019-02-27T22:49:32.939Z,5.10
2019-02-27T22:52:03.539Z,5.10
2019-02-27T22:54:44.941Z,5.10
2019-02-27T22:57:15.865Z,5.10
2019-02-27T22:59:49.138Z,5.20
2019-02-27T23:02:21.632Z,5.20
2019-02-27T23:04:52.166Z,5.20
2019-02-27T23:07:25.578Z,5.10
2019-02-27T23:09:58.284Z,5.00
2019-02-27T23:12:26.709Z,5.10
2019-02-27T23:14:55.873Z,5.00
2019-02-27T23:17:27.023Z,5.10
2019-02-27T23:19:59.316Z,5.10
2019-02-27T23:22:32.110Z,5.10
2019-02-27T23:25:04.122Z,5.10
2019-02-27T23:27:34.930Z,5.00
2019-02-27T23:30:05.918Z,4.90
2019-02-27T23:32:36.396Z,4.90
2019-02-27T23:35:08.464Z,4.90
2019-02-27T23:37:41.901Z,5.00
2019-02-27T23:40:17.147Z,5.00
2019-02-27T23:42:47.213Z,5.00
2019-02-27T23:45:18.808Z,5.00
2019-02-27T23:47:50.435Z,5.00
2019-02-27T23:50:22.408Z,4.90
2019-02-27T23:52:54.412Z,4.90
2019-02-27T23:55:25.352Z,4.90
2019-02-27T23:57:57.944Z,4.90
